sensor_id;sensor_type;location;lat;lon;timestamp;temperature;humidity
32749;DHT22;19119;52.474;13.710;2023-11-19T00:00:09;4.60;99.90
32749;DHT22;19119;52.474;13.710;2023-11-19T00:02:38;4.60;99.90
32749;DHT22;19119;52.474;13.710;2023-11-19T00:05:04;4.60;99.90
32749;DHT22;19119;52.474;13.710;2023-11-19T00:07:29;4.60;99.90
32749;DHT22;19119;52.474;13.710;2023-11-19T00:09:55;4.70;99.90
32749;DHT22;19119;52.474;13.710;2023-11-19T00:12:20;4.70;99.90
32749;DHT22;19119;52.474;13.710;2023-11-19T00:14:46;4.70;99.90
32749;DHT22;19119;52.474;13.710;2023-11-19T00:17:11;4.70;99.90
32749;DHT22;19119;52.474;13.710;2023-11-19T00:19:36;4.60;99.90
32749;DHT22;19119;52.474;13.710;2023-11-19T00:22:02;4.70;99.90
32749;DHT22;19119;52.474;13.710;2023-11-19T00:24:28;4.60;99.90
32749;DHT22;19119;52.474;13.710;2023-11-19T00:26:53;4.60;99.90
32749;DHT22;19119;52.474;13.710;2023-11-19T00:29:19;4.60;99.90
32749;DHT22;19119;52.474;13.710;2023-11-19T00:31:45;4.60;99.90
32749;DHT22;19119;52.474;13.710;2023-11-19T00:34:11;4.60;99.90
32749;DHT22;19119;52.474;13.710;2023-11-19T00:36:36;4.60;99.90
32749;DHT22;19119;52.474;13.710;2023-11-19T00:39:01;4.60;99.90
32749;DHT22;19119;52.474;13.710;2023-11-19T00:41:27;4.70;99.90
32749;DHT22;19119;52.474;13.710;2023-11-19T00:43:52;4.60;99.90
32749;DHT22;19119;52.474;13.710;2023-11-19T00:46:18;4.60;99.90
32749;DHT22;19119;52.474;13.710;2023-11-19T00:48:43;4.60;99.90
32749;DHT22;19119;52.474;13.710;2023-11-19T00:51:08;4.60;99.90
32749;DHT22;19119;52.474;13.710;2023-11-19T00:53:36;4.60;99.90
32749;DHT22;19119;52.474;13.710;2023-11-19T00:56:02;4.50;99.90
32749;DHT22;19119;52.474;13.710;2023-11-19T00:58:27;4.60;99.90
32749;DHT22;19119;52.474;13.710;2023-11-19T01:00:52;4.60;99.90
32749;DHT22;19119;52.474;13.710;2023-11-19T01:03:18;4.60;99.90
32749;DHT22;19119;52.474;13.710;2023-11-19T01:05:43;4.60;99.90
32749;DHT22;19119;52.474;13.710;2023-11-19T01:08:10;4.60;99.90
32749;DHT22;19119;52.474;13.710;2023-11-19T01:10:38;4.60;99.90
32749;DHT22;19119;52.474;13.710;2023-11-19T01:13:04;4.60;99.90
32749;DHT22;19119;52.474;13.710;2023-11-19T01:15:31;4.60;99.90
32749;DHT22;19119;52.474;13.710;2023-11-19T01:17:57;4.60;99.90
32749;DHT22;19119;52.474;13.710;2023-11-19T01:20:22;4.70;99.90
32749;DHT22;19119;52.474;13.710;2023-11-19T01:22:48;4.60;99.90
32749;DHT22;19119;52.474;13.710;2023-11-19T01:25:14;4.60;99.90
32749;DHT22;19119;52.474;13.710;2023-11-19T01:27:39;4.60;99.90
32749;DHT22;19119;52.474;13.710;2023-11-19T01:30:04;4.70;99.90
32749;DHT22;19119;52.474;13.710;2023-11-19T01:32:31;4.60;99.90
32749;DHT22;19119;52.474;13.710;2023-11-19T01:34:57;4.60;99.90
32749;DHT22;19119;52.474;13.710;2023-11-19T01:37:22;4.60;99.90
32749;DHT22;19119;52.474;13.710;2023-11-19T01:39:47;4.50;99.90
32749;DHT22;19119;52.474;13.710;2023-11-19T01:42:13;4.70;99.90
32749;DHT22;19119;52.474;13.710;2023-11-19T01:44:38;4.70;99.90
32749;DHT22;19119;52.474;13.710;2023-11-19T01:47:04;4.70;99.90
32749;DHT22;19119;52.474;13.710;2023-11-19T01:49:30;4.70;99.90
32749;DHT22;19119;52.474;13.710;2023-11-19T01:51:57;4.70;99.90
32749;DHT22;19119;52.474;13.710;2023-11-19T01:54:22;4.70;99.90
32749;DHT22;19119;52.474;13.710;2023-11-19T01:56:48;4.70;99.90
32749;DHT22;19119;52.474;13.710;2023-11-19T01:59:13;4.70;99.90
32749;DHT22;19119;52.474;13.710;2023-11-19T02:01:40;4.70;99.90
32749;DHT22;19119;52.474;13.710;2023-11-19T02:04:06;4.70;99.90
32749;DHT22;19119;52.474;13.710;2023-11-19T02:06:32;4.80;99.90
32749;DHT22;19119;52.474;13.710;2023-11-19T02:08:58;4.80;99.90
32749;DHT22;19119;52.474;13.710;2023-11-19T02:11:23;4.80;99.90
32749;DHT22;19119;52.474;13.710;2023-11-19T02:13:54;4.90;99.90
32749;DHT22;19119;52.474;13.710;2023-11-19T02:16:20;4.90;99.90
32749;DHT22;19119;52.474;13.710;2023-11-19T02:18:45;4.80;99.90
32749;DHT22;19119;52.474;13.710;2023-11-19T02:21:11;4.90;99.90
32749;DHT22;19119;52.474;13.710;2023-11-19T02:23:36;4.90;99.90
32749;DHT22;19119;52.474;13.710;2023-11-19T02:26:09;4.80;99.90
32749;DHT22;19119;52.474;13.710;2023-11-19T02:28:35;4.80;99.90
32749;DHT22;19119;52.474;13.710;2023-11-19T02:31:01;4.80;99.90
32749;DHT22;19119;52.474;13.710;2023-11-19T02:33:27;4.80;99.90
32749;DHT22;19119;52.474;13.710;2023-11-19T02:35:52;4.70;99.90
32749;DHT22;19119;52.474;13.710;2023-11-19T02:38:17;4.80;99.90
32749;DHT22;19119;52.474;13.710;2023-11-19T02:40:43;4.80;99.90
32749;DHT22;19119;52.474;13.710;2023-11-19T02:43:08;4.80;99.90
32749;DHT22;19119;52.474;13.710;2023-11-19T02:45:34;4.80;99.90
32749;DHT22;19119;52.474;13.710;2023-11-19T02:47:59;4.80;99.90
32749;DHT22;19119;52.474;13.710;2023-11-19T02:50:26;4.80;99.90
32749;DHT22;19119;52.474;13.710;2023-11-19T02:52:53;4.80;99.90
32749;DHT22;19119;52.474;13.710;2023-11-19T02:55:19;4.80;99.90
32749;DHT22;19119;52.474;13.710;2023-11-19T02:57:44;4.80;99.90
32749;DHT22;19119;52.474;13.710;2023-11-19T03:02:42;4.80;99.90
32749;DHT22;19119;52.474;13.710;2023-11-19T03:05:23;4.90;99.90
32749;DHT22;19119;52.474;13.710;2023-11-19T03:07:49;4.90;99.90
32749;DHT22;19119;52.474;13.710;2023-11-19T03:10:14;4.80;99.90
32749;DHT22;19119;52.474;13.710;2023-11-19T03:12:40;4.80;99.90
32749;DHT22;19119;52.474;13.710;2023-11-19T03:15:06;4.90;99.90
32749;DHT22;19119;52.474;13.710;2023-11-19T03:17:32;4.90;99.90
32749;DHT22;19119;52.474;13.710;2023-11-19T03:19:57;4.80;99.90
32749;DHT22;19119;52.474;13.710;2023-11-19T03:22:23;4.90;99.90
32749;DHT22;19119;52.474;13.710;2023-11-19T03:24:50;4.90;99.90
32749;DHT22;19119;52.474;13.710;2023-11-19T03:27:16;5.00;99.90
32749;DHT22;19119;52.474;13.710;2023-11-19T03:29:41;5.00;99.90
32749;DHT22;19119;52.474;13.710;2023-11-19T03:32:07;4.90;99.90
32749;DHT22;19119;52.474;13.710;2023-11-19T03:34:32;4.90;99.90
32749;DHT22;19119;52.474;13.710;2023-11-19T03:36:58;5.00;99.90
32749;DHT22;19119;52.474;13.710;2023-11-19T03:39:24;5.00;99.90
32749;DHT22;19119;52.474;13.710;2023-11-19T03:41:50;5.10;99.90
32749;DHT22;19119;52.474;13.710;2023-11-19T03:44:16;5.10;99.90
32749;DHT22;19119;52.474;13.710;2023-11-19T03:46:41;5.00;99.90
32749;DHT22;19119;52.474;13.710;2023-11-19T03:49:07;5.10;99.90
32749;DHT22;19119;52.474;13.710;2023-11-19T03:51:32;5.10;99.90
32749;DHT22;19119;52.474;13.710;2023-11-19T03:53:59;5.10;99.90
32749;DHT22;19119;52.474;13.710;2023-11-19T03:56:24;5.10;99.90
32749;DHT22;19119;52.474;13.710;2023-11-19T03:58:50;5.10;99.90
32749;DHT22;19119;52.474;13.710;2023-11-19T04:01:15;5.10;99.90
32749;DHT22;19119;52.474;13.710;2023-11-19T04:03:41;5.10;99.90
32749;DHT22;19119;52.474;13.710;2023-11-19T04:06:06;5.10;99.90
32749;DHT22;19119;52.474;13.710;2023-11-19T04:08:32;5.00;99.90
32749;DHT22;19119;52.474;13.710;2023-11-19T04:10:57;5.10;99.90
32749;DHT22;19119;52.474;13.710;2023-11-19T04:13:23;5.00;99.90
32749;DHT22;19119;52.474;13.710;2023-11-19T04:15:50;5.00;99.90
32749;DHT22;19119;52.474;13.710;2023-11-19T04:18:15;5.00;99.90
32749;DHT22;19119;52.474;13.710;2023-11-19T04:20:41;5.00;99.90
32749;DHT22;19119;52.474;13.710;2023-11-19T04:23:07;4.90;99.90
32749;DHT22;19119;52.474;13.710;2023-11-19T04:25:33;4.90;99.90
32749;DHT22;19119;52.474;13.710;2023-11-19T04:27:59;4.90;99.90
32749;DHT22;19119;52.474;13.710;2023-11-19T04:30:25;4.90;99.90
32749;DHT22;19119;52.474;13.710;2023-11-19T04:32:50;4.90;99.90
32749;DHT22;19119;52.474;13.710;2023-11-19T04:35:16;4.90;99.90
32749;DHT22;19119;52.474;13.710;2023-11-19T04:37:42;4.90;99.90
32749;DHT22;19119;52.474;13.710;2023-11-19T04:40:07;4.80;99.90
32749;DHT22;19119;52.474;13.710;2023-11-19T04:42:33;4.80;99.90
32749;DHT22;19119;52.474;13.710;2023-11-19T04:44:58;4.80;99.90
32749;DHT22;19119;52.474;13.710;2023-11-19T04:47:23;4.80;99.90
32749;DHT22;19119;52.474;13.710;2023-11-19T04:49:49;4.80;99.90
32749;DHT22;19119;52.474;13.710;2023-11-19T04:52:14;4.80;99.90
32749;DHT22;19119;52.474;13.710;2023-11-19T04:54:43;4.80;99.90
32749;DHT22;19119;52.474;13.710;2023-11-19T04:57:08;4.80;99.90
32749;DHT22;19119;52.474;13.710;2023-11-19T04:59:37;4.80;99.90
32749;DHT22;19119;52.474;13.710;2023-11-19T05:02:03;4.80;99.90
32749;DHT22;19119;52.474;13.710;2023-11-19T05:04:29;4.80;99.90
32749;DHT22;19119;52.474;13.710;2023-11-19T05:06:54;4.80;99.90
32749;DHT22;19119;52.474;13.710;2023-11-19T05:09:20;4.90;99.90
32749;DHT22;19119;52.474;13.710;2023-11-19T05:11:45;4.80;99.90
32749;DHT22;19119;52.474;13.710;2023-11-19T05:14:11;4.80;99.90
32749;DHT22;19119;52.474;13.710;2023-11-19T05:16:39;4.80;99.90
32749;DHT22;19119;52.474;13.710;2023-11-19T05:19:04;4.80;99.90
32749;DHT22;19119;52.474;13.710;2023-11-19T05:21:29;4.80;99.90
32749;DHT22;19119;52.474;13.710;2023-11-19T05:23:55;4.80;99.90
32749;DHT22;19119;52.474;13.710;2023-11-19T05:26:21;4.80;99.90
32749;DHT22;19119;52.474;13.710;2023-11-19T05:28:47;4.80;99.90
32749;DHT22;19119;52.474;13.710;2023-11-19T05:31:12;4.90;99.90
32749;DHT22;19119;52.474;13.710;2023-11-19T05:33:38;4.80;99.90
32749;DHT22;19119;52.474;13.710;2023-11-19T05:36:03;4.80;99.90
32749;DHT22;19119;52.474;13.710;2023-11-19T05:38:29;4.70;99.90
32749;DHT22;19119;52.474;13.710;2023-11-19T05:40:55;4.80;99.90
32749;DHT22;19119;52.474;13.710;2023-11-19T05:43:20;4.70;99.90
32749;DHT22;19119;52.474;13.710;2023-11-19T05:45:46;4.70;99.90
32749;DHT22;19119;52.474;13.710;2023-11-19T05:48:11;4.70;99.90
32749;DHT22;19119;52.474;13.710;2023-11-19T05:50:37;4.70;99.90
32749;DHT22;19119;52.474;13.710;2023-11-19T05:53:02;4.80;99.90
32749;DHT22;19119;52.474;13.710;2023-11-19T05:55:30;4.80;99.90
32749;DHT22;19119;52.474;13.710;2023-11-19T05:57:56;4.80;99.90
32749;DHT22;19119;52.474;13.710;2023-11-19T06:00:21;4.70;99.90
32749;DHT22;19119;52.474;13.710;2023-11-19T06:02:47;4.70;99.90
32749;DHT22;19119;52.474;13.710;2023-11-19T06:05:12;4.70;99.90
32749;DHT22;19119;52.474;13.710;2023-11-19T06:07:38;4.80;99.90
32749;DHT22;19119;52.474;13.710;2023-11-19T06:10:04;4.80;99.90
32749;DHT22;19119;52.474;13.710;2023-11-19T06:12:32;4.80;99.90
32749;DHT22;19119;52.474;13.710;2023-11-19T06:14:59;4.80;99.90
32749;DHT22;19119;52.474;13.710;2023-11-19T06:17:25;4.80;99.90
32749;DHT22;19119;52.474;13.710;2023-11-19T06:19:50;4.80;99.90
32749;DHT22;19119;52.474;13.710;2023-11-19T06:22:16;4.80;99.90
32749;DHT22;19119;52.474;13.710;2023-11-19T06:24:41;4.80;99.90
32749;DHT22;19119;52.474;13.710;2023-11-19T06:27:07;4.80;99.90
32749;DHT22;19119;52.474;13.710;2023-11-19T06:29:33;4.80;99.90
32749;DHT22;19119;52.474;13.710;2023-11-19T06:31:58;4.80;99.90
32749;DHT22;19119;52.474;13.710;2023-11-19T06:34:24;4.80;99.90
32749;DHT22;19119;52.474;13.710;2023-11-19T06:36:50;4.70;99.90
32749;DHT22;19119;52.474;13.710;2023-11-19T06:39:15;4.80;99.90
32749;DHT22;19119;52.474;13.710;2023-11-19T06:41:44;4.80;99.90
32749;DHT22;19119;52.474;13.710;2023-11-19T06:44:09;4.90;99.90
32749;DHT22;19119;52.474;13.710;2023-11-19T06:46:35;4.90;99.90
32749;DHT22;19119;52.474;13.710;2023-11-19T06:49:00;4.80;99.90
32749;DHT22;19119;52.474;13.710;2023-11-19T06:51:26;4.90;99.90
32749;DHT22;19119;52.474;13.710;2023-11-19T06:53:52;4.90;99.90
32749;DHT22;19119;52.474;13.710;2023-11-19T06:56:21;4.90;99.90
32749;DHT22;19119;52.474;13.710;2023-11-19T06:58:46;4.90;99.90
32749;DHT22;19119;52.474;13.710;2023-11-19T07:01:14;4.90;99.90
32749;DHT22;19119;52.474;13.710;2023-11-19T07:03:39;4.90;99.90
32749;DHT22;19119;52.474;13.710;2023-11-19T07:06:05;5.00;99.90
32749;DHT22;19119;52.474;13.710;2023-11-19T07:08:30;5.00;99.90
32749;DHT22;19119;52.474;13.710;2023-11-19T07:10:56;5.10;99.90
32749;DHT22;19119;52.474;13.710;2023-11-19T07:13:21;5.10;99.90
32749;DHT22;19119;52.474;13.710;2023-11-19T07:15:47;5.10;99.90
32749;DHT22;19119;52.474;13.710;2023-11-19T07:18:12;5.10;99.90
32749;DHT22;19119;52.474;13.710;2023-11-19T07:20:37;5.20;99.90
32749;DHT22;19119;52.474;13.710;2023-11-19T07:23:03;5.20;99.90
32749;DHT22;19119;52.474;13.710;2023-11-19T07:25:29;5.20;99.90
32749;DHT22;19119;52.474;13.710;2023-11-19T07:27:54;5.20;99.90
32749;DHT22;19119;52.474;13.710;2023-11-19T07:30:19;5.20;99.90
32749;DHT22;19119;52.474;13.710;2023-11-19T07:32:45;5.20;99.90
32749;DHT22;19119;52.474;13.710;2023-11-19T07:35:10;5.20;99.90
32749;DHT22;19119;52.474;13.710;2023-11-19T07:37:37;5.20;99.90
32749;DHT22;19119;52.474;13.710;2023-11-19T07:40:02;5.10;99.90
32749;DHT22;19119;52.474;13.710;2023-11-19T07:42:28;5.30;99.90
32749;DHT22;19119;52.474;13.710;2023-11-19T07:44:54;5.40;99.90
32749;DHT22;19119;52.474;13.710;2023-11-19T07:47:21;5.30;99.90
32749;DHT22;19119;52.474;13.710;2023-11-19T07:49:49;5.30;99.90
32749;DHT22;19119;52.474;13.710;2023-11-19T07:52:15;5.30;99.90
32749;DHT22;19119;52.474;13.710;2023-11-19T07:54:40;5.40;99.90
32749;DHT22;19119;52.474;13.710;2023-11-19T07:57:06;5.50;99.90
32749;DHT22;19119;52.474;13.710;2023-11-19T07:59:31;5.50;99.90
32749;DHT22;19119;52.474;13.710;2023-11-19T08:01:56;5.50;99.90
32749;DHT22;19119;52.474;13.710;2023-11-19T08:04:23;5.50;99.90
32749;DHT22;19119;52.474;13.710;2023-11-19T08:06:48;5.60;99.90
32749;DHT22;19119;52.474;13.710;2023-11-19T08:09:14;5.60;99.90
32749;DHT22;19119;52.474;13.710;2023-11-19T08:11:40;5.60;99.90
32749;DHT22;19119;52.474;13.710;2023-11-19T08:14:05;5.60;99.90
32749;DHT22;19119;52.474;13.710;2023-11-19T08:16:31;5.60;99.90
32749;DHT22;19119;52.474;13.710;2023-11-19T08:18:56;5.70;99.90
32749;DHT22;19119;52.474;13.710;2023-11-19T08:21:23;5.70;99.90
32749;DHT22;19119;52.474;13.710;2023-11-19T08:23:49;5.70;99.90
32749;DHT22;19119;52.474;13.710;2023-11-19T08:26:14;5.70;99.90
32749;DHT22;19119;52.474;13.710;2023-11-19T08:28:40;5.70;99.90
32749;DHT22;19119;52.474;13.710;2023-11-19T08:31:05;5.80;99.90
32749;DHT22;19119;52.474;13.710;2023-11-19T08:33:31;5.80;99.90
32749;DHT22;19119;52.474;13.710;2023-11-19T08:35:57;6.00;99.90
32749;DHT22;19119;52.474;13.710;2023-11-19T08:38:23;5.90;99.90
32749;DHT22;19119;52.474;13.710;2023-11-19T08:40:49;5.90;99.90
32749;DHT22;19119;52.474;13.710;2023-11-19T08:43:14;6.00;99.90
32749;DHT22;19119;52.474;13.710;2023-11-19T08:45:40;6.00;99.90
32749;DHT22;19119;52.474;13.710;2023-11-19T08:48:05;6.10;99.90
32749;DHT22;19119;52.474;13.710;2023-11-19T08:50:31;6.10;99.90
32749;DHT22;19119;52.474;13.710;2023-11-19T08:52:56;6.20;99.90
32749;DHT22;19119;52.474;13.710;2023-11-19T08:55:22;6.30;99.90
32749;DHT22;19119;52.474;13.710;2023-11-19T08:57:47;6.40;99.90
32749;DHT22;19119;52.474;13.710;2023-11-19T09:00:12;6.30;99.90
32749;DHT22;19119;52.474;13.710;2023-11-19T09:02:39;6.30;99.90
32749;DHT22;19119;52.474;13.710;2023-11-19T09:05:05;6.30;99.90
32749;DHT22;19119;52.474;13.710;2023-11-19T09:07:31;6.30;99.90
32749;DHT22;19119;52.474;13.710;2023-11-19T09:09:56;6.30;99.90
32749;DHT22;19119;52.474;13.710;2023-11-19T09:12:22;6.40;99.90
32749;DHT22;19119;52.474;13.710;2023-11-19T09:14:47;6.50;99.90
32749;DHT22;19119;52.474;13.710;2023-11-19T09:17:14;6.50;99.90
32749;DHT22;19119;52.474;13.710;2023-11-19T09:19:40;6.50;99.90
32749;DHT22;19119;52.474;13.710;2023-11-19T09:22:05;6.50;99.90
32749;DHT22;19119;52.474;13.710;2023-11-19T09:24:31;6.50;99.90
32749;DHT22;19119;52.474;13.710;2023-11-19T09:26:56;6.60;99.90
32749;DHT22;19119;52.474;13.710;2023-11-19T09:29:22;6.60;99.90
32749;DHT22;19119;52.474;13.710;2023-11-19T09:31:49;6.60;99.90
32749;DHT22;19119;52.474;13.710;2023-11-19T09:34:14;6.70;99.90
32749;DHT22;19119;52.474;13.710;2023-11-19T09:36:39;6.70;99.90
32749;DHT22;19119;52.474;13.710;2023-11-19T09:39:09;6.80;99.90
32749;DHT22;19119;52.474;13.710;2023-11-19T09:41:35;6.90;99.90
32749;DHT22;19119;52.474;13.710;2023-11-19T09:44:00;6.90;99.90
32749;DHT22;19119;52.474;13.710;2023-11-19T09:46:25;7.10;99.90
32749;DHT22;19119;52.474;13.710;2023-11-19T09:48:52;7.30;99.90
32749;DHT22;19119;52.474;13.710;2023-11-19T09:51:20;7.50;99.90
32749;DHT22;19119;52.474;13.710;2023-11-19T09:53:45;7.60;99.90
32749;DHT22;19119;52.474;13.710;2023-11-19T09:56:10;7.80;99.90
32749;DHT22;19119;52.474;13.710;2023-11-19T09:58:37;8.00;99.90
32749;DHT22;19119;52.474;13.710;2023-11-19T10:01:02;8.10;99.90
32749;DHT22;19119;52.474;13.710;2023-11-19T10:03:32;8.10;99.90
32749;DHT22;19119;52.474;13.710;2023-11-19T10:05:57;8.20;99.90
32749;DHT22;19119;52.474;13.710;2023-11-19T10:08:23;8.10;99.90
32749;DHT22;19119;52.474;13.710;2023-11-19T10:10:48;8.30;99.90
32749;DHT22;19119;52.474;13.710;2023-11-19T10:13:14;8.50;99.90
32749;DHT22;19119;52.474;13.710;2023-11-19T10:15:40;8.80;99.90
32749;DHT22;19119;52.474;13.710;2023-11-19T10:18:05;9.10;99.90
32749;DHT22;19119;52.474;13.710;2023-11-19T10:20:37;9.10;99.90
32749;DHT22;19119;52.474;13.710;2023-11-19T10:23:03;9.00;99.90
32749;DHT22;19119;52.474;13.710;2023-11-19T10:25:28;8.90;99.90
32749;DHT22;19119;52.474;13.710;2023-11-19T10:27:54;8.90;99.90
32749;DHT22;19119;52.474;13.710;2023-11-19T10:30:20;8.90;99.90
32749;DHT22;19119;52.474;13.710;2023-11-19T10:32:46;9.00;99.90
32749;DHT22;19119;52.474;13.710;2023-11-19T10:35:11;9.00;99.90
32749;DHT22;19119;52.474;13.710;2023-11-19T10:37:38;9.10;99.90
32749;DHT22;19119;52.474;13.710;2023-11-19T10:40:04;9.30;99.90
32749;DHT22;19119;52.474;13.710;2023-11-19T10:42:35;9.40;99.90
32749;DHT22;19119;52.474;13.710;2023-11-19T10:45:01;9.50;99.90
32749;DHT22;19119;52.474;13.710;2023-11-19T10:47:26;9.30;99.90
32749;DHT22;19119;52.474;13.710;2023-11-19T10:49:53;9.40;99.90
32749;DHT22;19119;52.474;13.710;2023-11-19T10:52:19;9.40;99.90
32749;DHT22;19119;52.474;13.710;2023-11-19T10:54:46;9.50;99.90
32749;DHT22;19119;52.474;13.710;2023-11-19T10:57:13;9.60;99.90
32749;DHT22;19119;52.474;13.710;2023-11-19T10:59:41;9.80;99.90
32749;DHT22;19119;52.474;13.710;2023-11-19T11:02:08;10.00;99.90
32749;DHT22;19119;52.474;13.710;2023-11-19T11:04:37;10.30;99.90
32749;DHT22;19119;52.474;13.710;2023-11-19T11:07:04;10.50;99.90
32749;DHT22;19119;52.474;13.710;2023-11-19T11:09:30;10.80;99.90
32749;DHT22;19119;52.474;13.710;2023-11-19T11:11:56;10.90;99.90
32749;DHT22;19119;52.474;13.710;2023-11-19T11:14:22;11.10;99.90
32749;DHT22;19119;52.474;13.710;2023-11-19T11:16:49;11.10;99.90
32749;DHT22;19119;52.474;13.710;2023-11-19T11:19:15;11.30;99.90
32749;DHT22;19119;52.474;13.710;2023-11-19T11:21:42;11.40;99.90
32749;DHT22;19119;52.474;13.710;2023-11-19T11:24:28;11.40;99.90
32749;DHT22;19119;52.474;13.710;2023-11-19T11:27:10;11.40;99.90
32749;DHT22;19119;52.474;13.710;2023-11-19T11:29:46;11.30;99.90
32749;DHT22;19119;52.474;13.710;2023-11-19T11:32:21;11.10;99.90
32749;DHT22;19119;52.474;13.710;2023-11-19T11:37:34;11.00;99.90
32749;DHT22;19119;52.474;13.710;2023-11-19T11:40:02;11.10;99.90
32749;DHT22;19119;52.474;13.710;2023-11-19T11:42:31;11.20;99.90
32749;DHT22;19119;52.474;13.710;2023-11-19T11:45:03;11.20;99.90
32749;DHT22;19119;52.474;13.710;2023-11-19T11:50:07;11.20;99.90
32749;DHT22;19119;52.474;13.710;2023-11-19T11:52:33;11.10;99.90
32749;DHT22;19119;52.474;13.710;2023-11-19T11:55:04;11.20;99.90
32749;DHT22;19119;52.474;13.710;2023-11-19T11:57:35;11.20;99.90
32749;DHT22;19119;52.474;13.710;2023-11-19T12:00:02;11.20;99.90
32749;DHT22;19119;52.474;13.710;2023-11-19T12:02:30;11.40;99.90
32749;DHT22;19119;52.474;13.710;2023-11-19T12:04:56;11.50;99.90
32749;DHT22;19119;52.474;13.710;2023-11-19T12:07:22;11.60;99.90
32749;DHT22;19119;52.474;13.710;2023-11-19T12:10:09;11.60;99.90
32749;DHT22;19119;52.474;13.710;2023-11-19T12:12:34;11.60;99.90
32749;DHT22;19119;52.474;13.710;2023-11-19T12:15:04;11.70;99.90
32749;DHT22;19119;52.474;13.710;2023-11-19T12:19:59;11.80;99.90
32749;DHT22;19119;52.474;13.710;2023-11-19T12:22:25;11.80;99.90
32749;DHT22;19119;52.474;13.710;2023-11-19T12:24:51;11.90;99.90
32749;DHT22;19119;52.474;13.710;2023-11-19T12:27:17;11.80;99.90
32749;DHT22;19119;52.474;13.710;2023-11-19T12:29:43;11.80;99.90
32749;DHT22;19119;52.474;13.710;2023-11-19T12:32:11;11.70;99.90
32749;DHT22;19119;52.474;13.710;2023-11-19T12:34:36;11.70;99.90
32749;DHT22;19119;52.474;13.710;2023-11-19T12:37:05;11.70;99.90
32749;DHT22;19119;52.474;13.710;2023-11-19T12:39:31;11.70;99.90
32749;DHT22;19119;52.474;13.710;2023-11-19T12:41:57;11.70;99.90
32749;DHT22;19119;52.474;13.710;2023-11-19T12:44:24;11.60;99.90
32749;DHT22;19119;52.474;13.710;2023-11-19T12:47:03;11.70;99.90
32749;DHT22;19119;52.474;13.710;2023-11-19T12:49:28;11.70;99.90
32749;DHT22;19119;52.474;13.710;2023-11-19T12:51:54;11.70;99.90
32749;DHT22;19119;52.474;13.710;2023-11-19T12:54:19;11.70;99.90
32749;DHT22;19119;52.474;13.710;2023-11-19T12:56:52;11.70;99.90
32749;DHT22;19119;52.474;13.710;2023-11-19T12:59:17;11.70;99.90
32749;DHT22;19119;52.474;13.710;2023-11-19T13:01:53;11.80;99.90
32749;DHT22;19119;52.474;13.710;2023-11-19T13:04:19;11.70;99.90
32749;DHT22;19119;52.474;13.710;2023-11-19T13:06:45;11.70;99.90
32749;DHT22;19119;52.474;13.710;2023-11-19T13:09:21;11.60;99.90
32749;DHT22;19119;52.474;13.710;2023-11-19T13:11:46;11.50;99.90
32749;DHT22;19119;52.474;13.710;2023-11-19T13:14:12;11.50;99.90
32749;DHT22;19119;52.474;13.710;2023-11-19T13:16:37;11.50;99.90
32749;DHT22;19119;52.474;13.710;2023-11-19T13:19:03;11.50;99.90
32749;DHT22;19119;52.474;13.710;2023-11-19T13:21:30;11.60;99.90
32749;DHT22;19119;52.474;13.710;2023-11-19T13:23:55;11.50;99.90
32749;DHT22;19119;52.474;13.710;2023-11-19T13:26:21;11.40;99.90
32749;DHT22;19119;52.474;13.710;2023-11-19T13:28:46;11.40;99.90
32749;DHT22;19119;52.474;13.710;2023-11-19T13:31:12;11.70;99.90
32749;DHT22;19119;52.474;13.710;2023-11-19T13:33:37;11.90;99.90
32749;DHT22;19119;52.474;13.710;2023-11-19T13:36:03;12.30;99.90
32749;DHT22;19119;52.474;13.710;2023-11-19T13:38:34;12.20;99.90
32749;DHT22;19119;52.474;13.710;2023-11-19T13:41:03;12.10;99.90
32749;DHT22;19119;52.474;13.710;2023-11-19T13:43:29;12.10;99.90
32749;DHT22;19119;52.474;13.710;2023-11-19T13:45:55;11.90;99.90
32749;DHT22;19119;52.474;13.710;2023-11-19T13:48:21;11.70;99.90
32749;DHT22;19119;52.474;13.710;2023-11-19T13:50:46;11.70;99.90
32749;DHT22;19119;52.474;13.710;2023-11-19T13:53:12;11.50;99.90
32749;DHT22;19119;52.474;13.710;2023-11-19T13:55:38;11.50;99.90
32749;DHT22;19119;52.474;13.710;2023-11-19T13:58:03;11.40;99.90
32749;DHT22;19119;52.474;13.710;2023-11-19T14:00:28;11.50;99.90
32749;DHT22;19119;52.474;13.710;2023-11-19T14:02:54;11.40;99.90
32749;DHT22;19119;52.474;13.710;2023-11-19T14:05:19;11.40;99.90
32749;DHT22;19119;52.474;13.710;2023-11-19T14:07:45;11.40;99.90
32749;DHT22;19119;52.474;13.710;2023-11-19T14:10:13;11.40;99.90
32749;DHT22;19119;52.474;13.710;2023-11-19T14:12:39;11.50;99.90
32749;DHT22;19119;52.474;13.710;2023-11-19T14:15:05;11.40;99.90
32749;DHT22;19119;52.474;13.710;2023-11-19T14:17:35;11.40;99.90
32749;DHT22;19119;52.474;13.710;2023-11-19T14:20:00;11.40;99.90
32749;DHT22;19119;52.474;13.710;2023-11-19T14:22:26;11.30;99.90
32749;DHT22;19119;52.474;13.710;2023-11-19T14:24:51;11.30;99.90
32749;DHT22;19119;52.474;13.710;2023-11-19T14:27:17;11.40;99.90
32749;DHT22;19119;52.474;13.710;2023-11-19T14:29:43;11.40;99.90
32749;DHT22;19119;52.474;13.710;2023-11-19T14:32:09;11.30;99.90
32749;DHT22;19119;52.474;13.710;2023-11-19T14:34:35;11.30;99.90
32749;DHT22;19119;52.474;13.710;2023-11-19T14:37:00;11.30;99.90
32749;DHT22;19119;52.474;13.710;2023-11-19T14:39:26;11.30;99.90
32749;DHT22;19119;52.474;13.710;2023-11-19T14:41:51;11.30;99.90
32749;DHT22;19119;52.474;13.710;2023-11-19T14:44:18;11.30;99.90
32749;DHT22;19119;52.474;13.710;2023-11-19T14:46:45;11.30;99.90
32749;DHT22;19119;52.474;13.710;2023-11-19T14:49:10;11.20;99.90
32749;DHT22;19119;52.474;13.710;2023-11-19T14:51:39;11.20;99.90
32749;DHT22;19119;52.474;13.710;2023-11-19T14:54:04;11.20;99.90
32749;DHT22;19119;52.474;13.710;2023-11-19T14:56:30;11.20;99.90
32749;DHT22;19119;52.474;13.710;2023-11-19T14:58:55;11.20;99.90
32749;DHT22;19119;52.474;13.710;2023-11-19T15:01:21;11.20;99.90
32749;DHT22;19119;52.474;13.710;2023-11-19T15:03:46;11.20;99.90
32749;DHT22;19119;52.474;13.710;2023-11-19T15:06:12;11.20;99.90
32749;DHT22;19119;52.474;13.710;2023-11-19T15:08:37;11.20;99.90
32749;DHT22;19119;52.474;13.710;2023-11-19T15:11:03;11.20;99.90
32749;DHT22;19119;52.474;13.710;2023-11-19T15:13:31;11.20;99.90
32749;DHT22;19119;52.474;13.710;2023-11-19T15:15:57;11.20;99.90
32749;DHT22;19119;52.474;13.710;2023-11-19T15:18:23;11.20;99.90
32749;DHT22;19119;52.474;13.710;2023-11-19T15:20:48;11.20;99.90
32749;DHT22;19119;52.474;13.710;2023-11-19T15:23:14;11.20;99.90
32749;DHT22;19119;52.474;13.710;2023-11-19T15:25:40;11.20;99.90
32749;DHT22;19119;52.474;13.710;2023-11-19T15:28:06;11.20;99.90
32749;DHT22;19119;52.474;13.710;2023-11-19T15:30:31;11.10;99.90